sensor_id;sensor_type;location;lat;lon;timestamp;temperature;humidity
9824;DHT22;4951;50.778;7.196;2022-08-03T00:00:53;20.00;1.00
9824;DHT22;4951;50.778;7.196;2022-08-03T00:03:21;20.00;1.00
9824;DHT22;4951;50.778;7.196;2022-08-03T00:05:48;20.00;1.00
9824;DHT22;4951;50.778;7.196;2022-08-03T00:08:15;20.00;1.00
9824;DHT22;4951;50.778;7.196;2022-08-03T00:10:42;19.90;1.00
9824;DHT22;4951;50.778;7.196;2022-08-03T00:13:09;19.90;1.00
9824;DHT22;4951;50.778;7.196;2022-08-03T00:15:39;19.90;1.00
9824;DHT22;4951;50.778;7.196;2022-08-03T00:18:06;19.90;1.00
9824;DHT22;4951;50.778;7.196;2022-08-03T00:20:34;19.80;1.00
9824;DHT22;4951;50.778;7.196;2022-08-03T00:23:01;19.80;1.00
9824;DHT22;4951;50.778;7.196;2022-08-03T00:25:28;19.80;1.00
9824;DHT22;4951;50.778;7.196;2022-08-03T00:27:55;19.70;1.00
9824;DHT22;4951;50.778;7.196;2022-08-03T00:30:22;19.70;1.00
9824;DHT22;4951;50.778;7.196;2022-08-03T00:32:50;19.70;1.00
9824;DHT22;4951;50.778;7.196;2022-08-03T00:35:18;19.60;1.00
9824;DHT22;4951;50.778;7.196;2022-08-03T00:37:45;19.60;1.00
9824;DHT22;4951;50.778;7.196;2022-08-03T00:40:13;19.60;1.00
9824;DHT22;4951;50.778;7.196;2022-08-03T00:42:48;19.50;1.00
9824;DHT22;4951;50.778;7.196;2022-08-03T00:45:17;19.50;1.00
9824;DHT22;4951;50.778;7.196;2022-08-03T00:47:44;19.50;1.00
9824;DHT22;4951;50.778;7.196;2022-08-03T00:50:13;19.40;1.00
9824;DHT22;4951;50.778;7.196;2022-08-03T00:52:41;19.40;1.00
9824;DHT22;4951;50.778;7.196;2022-08-03T00:55:09;19.30;1.00
9824;DHT22;4951;50.778;7.196;2022-08-03T00:57:36;19.30;1.00
9824;DHT22;4951;50.778;7.196;2022-08-03T01:00:05;19.30;1.00
9824;DHT22;4951;50.778;7.196;2022-08-03T01:02:33;19.20;1.00
9824;DHT22;4951;50.778;7.196;2022-08-03T01:05:00;19.20;1.00
9824;DHT22;4951;50.778;7.196;2022-08-03T01:07:36;19.20;1.00
9824;DHT22;4951;50.778;7.196;2022-08-03T01:10:13;19.20;1.00
9824;DHT22;4951;50.778;7.196;2022-08-03T01:12:47;19.20;1.00
9824;DHT22;4951;50.778;7.196;2022-08-03T01:15:31;19.10;1.00
9824;DHT22;4951;50.778;7.196;2022-08-03T01:18:06;19.10;1.00
9824;DHT22;4951;50.778;7.196;2022-08-03T01:20:38;19.00;1.00
9824;DHT22;4951;50.778;7.196;2022-08-03T01:29:13;19.00;1.00
9824;DHT22;4951;50.778;7.196;2022-08-03T01:31:50;18.90;1.00
9824;DHT22;4951;50.778;7.196;2022-08-03T01:34:19;18.90;1.00
9824;DHT22;4951;50.778;7.196;2022-08-03T01:36:51;18.90;1.00
9824;DHT22;4951;50.778;7.196;2022-08-03T01:39:20;18.90;1.00
9824;DHT22;4951;50.778;7.196;2022-08-03T01:41:52;18.80;1.00
9824;DHT22;4951;50.778;7.196;2022-08-03T01:44:25;18.80;1.00
9824;DHT22;4951;50.778;7.196;2022-08-03T01:46:57;18.80;1.00
9824;DHT22;4951;50.778;7.196;2022-08-03T01:49:26;18.80;1.00
9824;DHT22;4951;50.778;7.196;2022-08-03T01:51:55;18.80;1.00
9824;DHT22;4951;50.778;7.196;2022-08-03T01:54:23;18.80;1.00
9824;DHT22;4951;50.778;7.196;2022-08-03T01:56:54;18.70;1.00
9824;DHT22;4951;50.778;7.196;2022-08-03T01:59:24;18.70;1.00
9824;DHT22;4951;50.778;7.196;2022-08-03T02:01:57;18.70;1.00
9824;DHT22;4951;50.778;7.196;2022-08-03T02:04:27;18.60;1.00
9824;DHT22;4951;50.778;7.196;2022-08-03T02:06:56;18.70;1.00
9824;DHT22;4951;50.778;7.196;2022-08-03T02:09:24;18.60;1.00
9824;DHT22;4951;50.778;7.196;2022-08-03T02:11:54;18.60;1.00
9824;DHT22;4951;50.778;7.196;2022-08-03T02:14:22;18.60;1.00
9824;DHT22;4951;50.778;7.196;2022-08-03T02:16:50;18.60;1.00
9824;DHT22;4951;50.778;7.196;2022-08-03T02:19:20;18.60;1.00
9824;DHT22;4951;50.778;7.196;2022-08-03T02:21:50;18.50;1.00
9824;DHT22;4951;50.778;7.196;2022-08-03T02:24:18;18.50;1.00
9824;DHT22;4951;50.778;7.196;2022-08-03T02:26:46;18.50;1.00
9824;DHT22;4951;50.778;7.196;2022-08-03T02:29:17;18.50;1.00
9824;DHT22;4951;50.778;7.196;2022-08-03T02:31:47;18.40;1.00
9824;DHT22;4951;50.778;7.196;2022-08-03T02:34:16;18.40;1.00
9824;DHT22;4951;50.778;7.196;2022-08-03T02:36:48;18.40;1.00
9824;DHT22;4951;50.778;7.196;2022-08-03T02:39:19;18.30;1.00
9824;DHT22;4951;50.778;7.196;2022-08-03T02:41:50;18.30;1.00
9824;DHT22;4951;50.778;7.196;2022-08-03T02:44:20;18.30;1.00
9824;DHT22;4951;50.778;7.196;2022-08-03T02:46:48;18.30;1.00
9824;DHT22;4951;50.778;7.196;2022-08-03T02:49:20;18.30;1.00
9824;DHT22;4951;50.778;7.196;2022-08-03T02:51:49;18.30;1.00
9824;DHT22;4951;50.778;7.196;2022-08-03T02:54:19;18.30;1.00
9824;DHT22;4951;50.778;7.196;2022-08-03T02:56:47;18.20;1.00
9824;DHT22;4951;50.778;7.196;2022-08-03T02:59:17;18.20;1.00
9824;DHT22;4951;50.778;7.196;2022-08-03T03:01:46;18.20;1.00
9824;DHT22;4951;50.778;7.196;2022-08-03T03:04:14;18.10;1.00
9824;DHT22;4951;50.778;7.196;2022-08-03T03:06:42;18.10;1.00
9824;DHT22;4951;50.778;7.196;2022-08-03T03:09:11;18.10;1.00
9824;DHT22;4951;50.778;7.196;2022-08-03T03:11:39;18.10;1.00
9824;DHT22;4951;50.778;7.196;2022-08-03T03:14:08;18.10;1.00
9824;DHT22;4951;50.778;7.196;2022-08-03T03:16:39;18.00;1.00
9824;DHT22;4951;50.778;7.196;2022-08-03T03:19:06;18.00;1.00
9824;DHT22;4951;50.778;7.196;2022-08-03T03:21:34;18.00;1.00
9824;DHT22;4951;50.778;7.196;2022-08-03T03:24:04;18.00;1.00
9824;DHT22;4951;50.778;7.196;2022-08-03T03:26:35;17.90;1.00
9824;DHT22;4951;50.778;7.196;2022-08-03T03:29:02;17.90;1.00
9824;DHT22;4951;50.778;7.196;2022-08-03T03:31:30;17.80;1.00
9824;DHT22;4951;50.778;7.196;2022-08-03T03:33:57;17.80;1.00
9824;DHT22;4951;50.778;7.196;2022-08-03T03:36:25;17.80;1.00
9824;DHT22;4951;50.778;7.196;2022-08-03T03:38:52;17.80;1.00
9824;DHT22;4951;50.778;7.196;2022-08-03T03:41:19;17.80;1.00
9824;DHT22;4951;50.778;7.196;2022-08-03T03:43:48;17.80;1.00
9824;DHT22;4951;50.778;7.196;2022-08-03T03:46:15;17.80;1.00
9824;DHT22;4951;50.778;7.196;2022-08-03T03:48:43;17.70;1.00
9824;DHT22;4951;50.778;7.196;2022-08-03T03:51:10;17.70;1.00
9824;DHT22;4951;50.778;7.196;2022-08-03T03:53:37;17.70;1.00
9824;DHT22;4951;50.778;7.196;2022-08-03T03:56:04;17.70;1.00
9824;DHT22;4951;50.778;7.196;2022-08-03T03:58:32;17.70;1.00
9824;DHT22;4951;50.778;7.196;2022-08-03T04:01:00;17.70;1.00
9824;DHT22;4951;50.778;7.196;2022-08-03T04:03:27;17.70;1.00
9824;DHT22;4951;50.778;7.196;2022-08-03T04:05:54;17.70;1.00
9824;DHT22;4951;50.778;7.196;2022-08-03T04:08:39;17.70;1.00
9824;DHT22;4951;50.778;7.196;2022-08-03T04:11:42;17.70;1.00
9824;DHT22;4951;50.778;7.196;2022-08-03T04:14:13;17.70;1.00
9824;DHT22;4951;50.778;7.196;2022-08-03T04:16:45;17.70;1.00
9824;DHT22;4951;50.778;7.196;2022-08-03T04:19:16;17.70;1.00
9824;DHT22;4951;50.778;7.196;2022-08-03T04:21:47;17.70;1.00
9824;DHT22;4951;50.778;7.196;2022-08-03T04:24:17;17.70;1.00
9824;DHT22;4951;50.778;7.196;2022-08-03T04:26:47;17.80;1.00
9824;DHT22;4951;50.778;7.196;2022-08-03T04:29:15;17.80;1.00
9824;DHT22;4951;50.778;7.196;2022-08-03T04:31:45;17.80;1.00
9824;DHT22;4951;50.778;7.196;2022-08-03T04:34:14;17.80;1.00
9824;DHT22;4951;50.778;7.196;2022-08-03T04:36:47;17.90;1.00
9824;DHT22;4951;50.778;7.196;2022-08-03T04:39:18;17.90;1.00
9824;DHT22;4951;50.778;7.196;2022-08-03T04:41:48;17.90;1.00
9824;DHT22;4951;50.778;7.196;2022-08-03T04:44:18;17.90;1.00
9824;DHT22;4951;50.778;7.196;2022-08-03T04:46:48;18.00;1.00
9824;DHT22;4951;50.778;7.196;2022-08-03T04:49:16;18.00;1.00
9824;DHT22;4951;50.778;7.196;2022-08-03T04:51:44;18.00;1.00
9824;DHT22;4951;50.778;7.196;2022-08-03T04:54:12;18.00;1.00
9824;DHT22;4951;50.778;7.196;2022-08-03T04:56:39;18.00;1.00
9824;DHT22;4951;50.778;7.196;2022-08-03T04:59:06;18.10;1.00
9824;DHT22;4951;50.778;7.196;2022-08-03T05:01:34;18.10;1.00
9824;DHT22;4951;50.778;7.196;2022-08-03T05:04:03;18.10;1.00
9824;DHT22;4951;50.778;7.196;2022-08-03T05:06:30;18.20;1.00
9824;DHT22;4951;50.778;7.196;2022-08-03T05:08:57;18.20;1.00
9824;DHT22;4951;50.778;7.196;2022-08-03T05:11:24;18.20;1.00
9824;DHT22;4951;50.778;7.196;2022-08-03T05:13:51;18.20;1.00
9824;DHT22;4951;50.778;7.196;2022-08-03T05:16:18;18.20;1.00
9824;DHT22;4951;50.778;7.196;2022-08-03T05:18:45;18.30;1.00
9824;DHT22;4951;50.778;7.196;2022-08-03T05:21:14;18.30;1.00
9824;DHT22;4951;50.778;7.196;2022-08-03T05:23:41;18.40;1.00
9824;DHT22;4951;50.778;7.196;2022-08-03T05:26:09;18.40;1.00
9824;DHT22;4951;50.778;7.196;2022-08-03T05:28:37;18.50;1.00
9824;DHT22;4951;50.778;7.196;2022-08-03T05:31:04;18.60;1.00
9824;DHT22;4951;50.778;7.196;2022-08-03T05:33:33;18.60;1.00
9824;DHT22;4951;50.778;7.196;2022-08-03T05:36:00;18.80;1.00
9824;DHT22;4951;50.778;7.196;2022-08-03T05:38:28;18.90;1.00
9824;DHT22;4951;50.778;7.196;2022-08-03T05:40:56;19.20;1.00
9824;DHT22;4951;50.778;7.196;2022-08-03T05:43:24;19.30;1.00
9824;DHT22;4951;50.778;7.196;2022-08-03T05:45:51;19.40;1.00
9824;DHT22;4951;50.778;7.196;2022-08-03T05:48:18;19.50;1.00
9824;DHT22;4951;50.778;7.196;2022-08-03T05:50:45;19.50;1.00
9824;DHT22;4951;50.778;7.196;2022-08-03T05:53:12;19.50;1.00
9824;DHT22;4951;50.778;7.196;2022-08-03T05:55:41;19.60;1.00
9824;DHT22;4951;50.778;7.196;2022-08-03T05:58:08;19.60;1.00
9824;DHT22;4951;50.778;7.196;2022-08-03T06:00:35;19.70;1.00
9824;DHT22;4951;50.778;7.196;2022-08-03T06:03:02;19.80;1.00
9824;DHT22;4951;50.778;7.196;2022-08-03T06:05:30;19.80;1.00
9824;DHT22;4951;50.778;7.196;2022-08-03T06:08:01;19.90;1.00
9824;DHT22;4951;50.778;7.196;2022-08-03T06:10:28;20.00;1.00
9824;DHT22;4951;50.778;7.196;2022-08-03T06:12:57;20.10;1.00
9824;DHT22;4951;50.778;7.196;2022-08-03T06:15:24;20.20;1.00
9824;DHT22;4951;50.778;7.196;2022-08-03T06:17:51;20.40;1.00
9824;DHT22;4951;50.778;7.196;2022-08-03T06:20:19;20.50;1.00
9824;DHT22;4951;50.778;7.196;2022-08-03T06:22:47;20.60;1.00
9824;DHT22;4951;50.778;7.196;2022-08-03T06:25:14;20.60;1.00
9824;DHT22;4951;50.778;7.196;2022-08-03T06:27:42;20.80;1.00
9824;DHT22;4951;50.778;7.196;2022-08-03T06:30:12;20.90;1.00
9824;DHT22;4951;50.778;7.196;2022-08-03T06:32:39;21.00;1.00
9824;DHT22;4951;50.778;7.196;2022-08-03T06:35:08;21.20;1.00
9824;DHT22;4951;50.778;7.196;2022-08-03T06:37:41;21.30;1.00
9824;DHT22;4951;50.778;7.196;2022-08-03T06:40:10;21.40;1.00
9824;DHT22;4951;50.778;7.196;2022-08-03T06:42:37;21.50;1.00
9824;DHT22;4951;50.778;7.196;2022-08-03T06:45:06;21.60;1.00
9824;DHT22;4951;50.778;7.196;2022-08-03T06:47:35;21.80;1.00
9824;DHT22;4951;50.778;7.196;2022-08-03T06:50:03;21.90;1.00
9824;DHT22;4951;50.778;7.196;2022-08-03T06:52:31;22.00;1.00
9824;DHT22;4951;50.778;7.196;2022-08-03T06:55:04;22.20;1.00
9824;DHT22;4951;50.778;7.196;2022-08-03T06:57:32;22.30;1.00
9824;DHT22;4951;50.778;7.196;2022-08-03T06:59:59;22.40;1.00
9824;DHT22;4951;50.778;7.196;2022-08-03T07:02:27;22.50;1.00
9824;DHT22;4951;50.778;7.196;2022-08-03T07:04:56;22.60;1.00
9824;DHT22;4951;50.778;7.196;2022-08-03T07:07:24;22.80;1.00
9824;DHT22;4951;50.778;7.196;2022-08-03T07:09:51;22.90;1.00
9824;DHT22;4951;50.778;7.196;2022-08-03T07:12:18;23.00;1.00
9824;DHT22;4951;50.778;7.196;2022-08-03T07:14:45;23.10;1.00
9824;DHT22;4951;50.778;7.196;2022-08-03T07:17:12;23.20;1.00
9824;DHT22;4951;50.778;7.196;2022-08-03T07:19:39;23.20;1.00
9824;DHT22;4951;50.778;7.196;2022-08-03T07:22:08;23.30;1.00
9824;DHT22;4951;50.778;7.196;2022-08-03T07:24:36;23.40;1.00
9824;DHT22;4951;50.778;7.196;2022-08-03T07:27:06;23.50;1.00
9824;DHT22;4951;50.778;7.196;2022-08-03T07:29:34;23.60;1.00
9824;DHT22;4951;50.778;7.196;2022-08-03T07:32:01;23.60;1.00
9824;DHT22;4951;50.778;7.196;2022-08-03T07:34:29;23.70;1.00
9824;DHT22;4951;50.778;7.196;2022-08-03T07:36:57;23.80;1.00
9824;DHT22;4951;50.778;7.196;2022-08-03T07:39:25;23.80;1.00
9824;DHT22;4951;50.778;7.196;2022-08-03T07:41:52;23.90;1.00
9824;DHT22;4951;50.778;7.196;2022-08-03T07:44:20;24.00;1.00
9824;DHT22;4951;50.778;7.196;2022-08-03T07:46:47;24.10;1.00
9824;DHT22;4951;50.778;7.196;2022-08-03T07:49:15;24.10;1.00
9824;DHT22;4951;50.778;7.196;2022-08-03T07:51:42;24.20;1.00
9824;DHT22;4951;50.778;7.196;2022-08-03T07:54:09;24.20;1.00
9824;DHT22;4951;50.778;7.196;2022-08-03T07:56:38;24.30;1.00
9824;DHT22;4951;50.778;7.196;2022-08-03T07:59:05;24.40;1.00
9824;DHT22;4951;50.778;7.196;2022-08-03T08:01:33;24.50;1.00
9824;DHT22;4951;50.778;7.196;2022-08-03T08:04:02;24.70;1.00
9824;DHT22;4951;50.778;7.196;2022-08-03T08:06:29;24.80;1.00
9824;DHT22;4951;50.778;7.196;2022-08-03T08:08:57;24.80;1.00
9824;DHT22;4951;50.778;7.196;2022-08-03T08:11:27;24.90;1.00
9824;DHT22;4951;50.778;7.196;2022-08-03T08:13:55;25.00;1.00
9824;DHT22;4951;50.778;7.196;2022-08-03T08:16:22;25.20;1.00
9824;DHT22;4951;50.778;7.196;2022-08-03T08:18:49;25.30;1.00
9824;DHT22;4951;50.778;7.196;2022-08-03T08:21:17;25.40;1.00
9824;DHT22;4951;50.778;7.196;2022-08-03T08:23:44;25.50;1.00
9824;DHT22;4951;50.778;7.196;2022-08-03T08:26:12;25.60;1.00
9824;DHT22;4951;50.778;7.196;2022-08-03T08:28:39;25.70;1.00
9824;DHT22;4951;50.778;7.196;2022-08-03T08:31:08;25.80;1.00
9824;DHT22;4951;50.778;7.196;2022-08-03T08:33:35;25.90;1.00
9824;DHT22;4951;50.778;7.196;2022-08-03T08:36:02;26.00;1.00
9824;DHT22;4951;50.778;7.196;2022-08-03T08:38:29;26.10;1.00
9824;DHT22;4951;50.778;7.196;2022-08-03T08:40:57;26.30;1.00
9824;DHT22;4951;50.778;7.196;2022-08-03T08:43:24;26.40;1.00
9824;DHT22;4951;50.778;7.196;2022-08-03T08:45:53;26.60;1.00
9824;DHT22;4951;50.778;7.196;2022-08-03T08:48:24;26.70;1.00
9824;DHT22;4951;50.778;7.196;2022-08-03T08:50:52;26.80;1.00
9824;DHT22;4951;50.778;7.196;2022-08-03T08:53:20;27.00;99.90
9824;DHT22;4951;50.778;7.196;2022-08-03T08:55:49;27.10;99.90
9824;DHT22;4951;50.778;7.196;2022-08-03T08:58:18;27.20;99.90
9824;DHT22;4951;50.778;7.196;2022-08-03T09:00:47;27.30;99.90
9824;DHT22;4951;50.778;7.196;2022-08-03T09:03:14;27.40;99.90
9824;DHT22;4951;50.778;7.196;2022-08-03T09:05:44;27.40;99.90
9824;DHT22;4951;50.778;7.196;2022-08-03T09:08:12;27.50;99.90
9824;DHT22;4951;50.778;7.196;2022-08-03T09:10:39;27.50;99.90
9824;DHT22;4951;50.778;7.196;2022-08-03T09:13:07;27.70;99.90
9824;DHT22;4951;50.778;7.196;2022-08-03T09:15:34;27.70;99.90
9824;DHT22;4951;50.778;7.196;2022-08-03T09:18:03;27.80;99.90
9824;DHT22;4951;50.778;7.196;2022-08-03T09:20:32;27.90;99.90
9824;DHT22;4951;50.778;7.196;2022-08-03T09:23:03;28.10;99.90
9824;DHT22;4951;50.778;7.196;2022-08-03T09:25:32;28.10;99.90
9824;DHT22;4951;50.778;7.196;2022-08-03T09:28:08;28.20;99.90
9824;DHT22;4951;50.778;7.196;2022-08-03T09:30:36;28.20;99.90
9824;DHT22;4951;50.778;7.196;2022-08-03T09:33:04;28.30;99.90
9824;DHT22;4951;50.778;7.196;2022-08-03T09:35:32;28.30;99.90
9824;DHT22;4951;50.778;7.196;2022-08-03T09:38:12;28.40;99.90
9824;DHT22;4951;50.778;7.196;2022-08-03T09:40:40;28.50;99.90
9824;DHT22;4951;50.778;7.196;2022-08-03T09:43:08;28.60;99.90
9824;DHT22;4951;50.778;7.196;2022-08-03T09:45:38;28.60;99.90
9824;DHT22;4951;50.778;7.196;2022-08-03T09:48:26;28.80;99.90
9824;DHT22;4951;50.778;7.196;2022-08-03T09:50:56;28.90;99.90
9824;DHT22;4951;50.778;7.196;2022-08-03T09:53:26;28.90;99.90
9824;DHT22;4951;50.778;7.196;2022-08-03T09:55:55;29.00;99.90
9824;DHT22;4951;50.778;7.196;2022-08-03T09:58:23;29.10;99.90
9824;DHT22;4951;50.778;7.196;2022-08-03T10:00:56;29.20;99.90
9824;DHT22;4951;50.778;7.196;2022-08-03T10:03:25;29.20;99.90
9824;DHT22;4951;50.778;7.196;2022-08-03T10:05:53;29.20;99.90
9824;DHT22;4951;50.778;7.196;2022-08-03T10:08:21;29.20;99.90
9824;DHT22;4951;50.778;7.196;2022-08-03T10:10:51;29.30;99.90
9824;DHT22;4951;50.778;7.196;2022-08-03T10:13:21;29.40;99.90
9824;DHT22;4951;50.778;7.196;2022-08-03T10:15:49;29.40;99.90
9824;DHT22;4951;50.778;7.196;2022-08-03T10:18:16;29.40;99.90
9824;DHT22;4951;50.778;7.196;2022-08-03T10:20:48;29.50;99.90
9824;DHT22;4951;50.778;7.196;2022-08-03T10:23:17;29.50;99.90
9824;DHT22;4951;50.778;7.196;2022-08-03T10:25:46;29.60;99.90
9824;DHT22;4951;50.778;7.196;2022-08-03T10:28:17;29.50;99.90
9824;DHT22;4951;50.778;7.196;2022-08-03T10:30:49;29.60;99.90
9824;DHT22;4951;50.778;7.196;2022-08-03T10:33:19;29.60;99.90
9824;DHT22;4951;50.778;7.196;2022-08-03T10:35:51;29.60;99.90
9824;DHT22;4951;50.778;7.196;2022-08-03T10:38:20;29.60;99.90
9824;DHT22;4951;50.778;7.196;2022-08-03T10:40:50;29.60;99.90
9824;DHT22;4951;50.778;7.196;2022-08-03T10:43:21;29.60;99.90
9824;DHT22;4951;50.778;7.196;2022-08-03T10:45:51;29.50;99.90
9824;DHT22;4951;50.778;7.196;2022-08-03T10:48:18;29.60;99.90
9824;DHT22;4951;50.778;7.196;2022-08-03T10:50:47;29.60;99.90
9824;DHT22;4951;50.778;7.196;2022-08-03T10:53:15;29.60;99.90
9824;DHT22;4951;50.778;7.196;2022-08-03T10:55:44;29.60;99.90
9824;DHT22;4951;50.778;7.196;2022-08-03T10:58:50;29.60;99.90
9824;DHT22;4951;50.778;7.196;2022-08-03T11:01:18;29.70;99.90
9824;DHT22;4951;50.778;7.196;2022-08-03T11:04:14;29.70;99.90
9824;DHT22;4951;50.778;7.196;2022-08-03T11:06:43;29.80;99.90
9824;DHT22;4951;50.778;7.196;2022-08-03T11:09:15;29.70;99.90
9824;DHT22;4951;50.778;7.196;2022-08-03T11:11:44;29.80;99.90
9824;DHT22;4951;50.778;7.196;2022-08-03T11:14:14;29.90;99.90
9824;DHT22;4951;50.778;7.196;2022-08-03T11:16:44;30.00;99.90
9824;DHT22;4951;50.778;7.196;2022-08-03T11:19:14;30.10;99.90
9824;DHT22;4951;50.778;7.196;2022-08-03T11:21:55;30.20;99.90
9824;DHT22;4951;50.778;7.196;2022-08-03T11:27:24;30.30;99.90
9824;DHT22;4951;50.778;7.196;2022-08-03T11:29:58;30.40;99.90
9824;DHT22;4951;50.778;7.196;2022-08-03T11:32:50;30.40;99.90
9824;DHT22;4951;50.778;7.196;2022-08-03T11:35:19;30.40;99.90
9824;DHT22;4951;50.778;7.196;2022-08-03T11:38:09;30.50;99.90
9824;DHT22;4951;50.778;7.196;2022-08-03T11:40:41;30.70;99.90
9824;DHT22;4951;50.778;7.196;2022-08-03T11:43:09;30.90;99.90
9824;DHT22;4951;50.778;7.196;2022-08-03T11:45:58;31.10;99.90
9824;DHT22;4951;50.778;7.196;2022-08-03T11:48:35;31.10;99.90
9824;DHT22;4951;50.778;7.196;2022-08-03T11:51:05;31.30;99.90
9824;DHT22;4951;50.778;7.196;2022-08-03T11:53:33;31.30;99.90
9824;DHT22;4951;50.778;7.196;2022-08-03T11:56:01;31.40;99.90
9824;DHT22;4951;50.778;7.196;2022-08-03T11:58:28;31.50;99.90
9824;DHT22;4951;50.778;7.196;2022-08-03T12:01:04;31.50;99.90
9824;DHT22;4951;50.778;7.196;2022-08-03T12:03:33;31.60;99.90
9824;DHT22;4951;50.778;7.196;2022-08-03T12:06:01;31.70;99.90
9824;DHT22;4951;50.778;7.196;2022-08-03T12:08:31;31.70;99.90
9824;DHT22;4951;50.778;7.196;2022-08-03T12:11:00;31.70;99.90
9824;DHT22;4951;50.778;7.196;2022-08-03T12:13:36;31.70;99.90
9824;DHT22;4951;50.778;7.196;2022-08-03T12:16:08;31.80;99.90
9824;DHT22;4951;50.778;7.196;2022-08-03T12:18:35;31.80;99.90
9824;DHT22;4951;50.778;7.196;2022-08-03T12:21:05;31.80;99.90
9824;DHT22;4951;50.778;7.196;2022-08-03T12:23:33;31.90;99.90
9824;DHT22;4951;50.778;7.196;2022-08-03T12:26:04;31.90;99.90
9824;DHT22;4951;50.778;7.196;2022-08-03T12:28:32;32.00;99.90
9824;DHT22;4951;50.778;7.196;2022-08-03T12:31:01;32.10;99.90
9824;DHT22;4951;50.778;7.196;2022-08-03T12:33:30;32.30;99.90
9824;DHT22;4951;50.778;7.196;2022-08-03T12:36:04;32.50;99.90
9824;DHT22;4951;50.778;7.196;2022-08-03T12:38:32;32.60;99.90
9824;DHT22;4951;50.778;7.196;2022-08-03T12:41:03;32.90;99.90
9824;DHT22;4951;50.778;7.196;2022-08-03T12:43:31;33.10;99.90
9824;DHT22;4951;50.778;7.196;2022-08-03T12:46:12;33.30;99.90
9824;DHT22;4951;50.778;7.196;2022-08-03T12:49:06;33.60;99.90
9824;DHT22;4951;50.778;7.196;2022-08-03T12:51:36;33.80;99.90
9824;DHT22;4951;50.778;7.196;2022-08-03T12:54:04;33.90;99.90
9824;DHT22;4951;50.778;7.196;2022-08-03T12:56:32;34.10;99.90
9824;DHT22;4951;50.778;7.196;2022-08-03T12:58:59;34.30;99.90
9824;DHT22;4951;50.778;7.196;2022-08-03T13:01:35;34.50;99.90
9824;DHT22;4951;50.778;7.196;2022-08-03T13:04:02;34.80;99.90
9824;DHT22;4951;50.778;7.196;2022-08-03T13:06:32;35.00;99.90
9824;DHT22;4951;50.778;7.196;2022-08-03T13:09:04;35.20;99.90
9824;DHT22;4951;50.778;7.196;2022-08-03T13:11:32;35.40;99.90
9824;DHT22;4951;50.778;7.196;2022-08-03T13:13:59;35.40;99.90
9824;DHT22;4951;50.778;7.196;2022-08-03T13:16:27;35.60;99.90
9824;DHT22;4951;50.778;7.196;2022-08-03T13:18:54;35.90;99.90
9824;DHT22;4951;50.778;7.196;2022-08-03T13:21:21;36.20;99.90
9824;DHT22;4951;50.778;7.196;2022-08-03T13:23:54;36.40;99.90
9824;DHT22;4951;50.778;7.196;2022-08-03T13:26:22;36.30;99.90
9824;DHT22;4951;50.778;7.196;2022-08-03T13:28:49;36.10;99.90
9824;DHT22;4951;50.778;7.196;2022-08-03T13:31:16;36.20;99.90
9824;DHT22;4951;50.778;7.196;2022-08-03T13:33:43;36.60;99.90
9824;DHT22;4951;50.778;7.196;2022-08-03T13:36:10;36.90;99.90
9824;DHT22;4951;50.778;7.196;2022-08-03T13:38:37;37.10;99.90
9824;DHT22;4951;50.778;7.196;2022-08-03T13:41:07;37.40;99.90
9824;DHT22;4951;50.778;7.196;2022-08-03T13:43:34;37.60;99.90
9824;DHT22;4951;50.778;7.196;2022-08-03T13:46:01;37.70;99.90
9824;DHT22;4951;50.778;7.196;2022-08-03T13:48:28;38.00;99.90
9824;DHT22;4951;50.778;7.196;2022-08-03T13:50:55;38.20;99.90
9824;DHT22;4951;50.778;7.196;2022-08-03T13:53:23;38.40;99.90
9824;DHT22;4951;50.778;7.196;2022-08-03T13:55:50;38.30;99.90
9824;DHT22;4951;50.778;7.196;2022-08-03T13:58:18;37.90;99.90
9824;DHT22;4951;50.778;7.196;2022-08-03T14:00:46;37.70;99.90
9824;DHT22;4951;50.778;7.196;2022-08-03T14:03:13;37.70;99.90
9824;DHT22;4951;50.778;7.196;2022-08-03T14:05:45;37.40;99.90
9824;DHT22;4951;50.778;7.196;2022-08-03T14:08:13;37.40;99.90
9824;DHT22;4951;50.778;7.196;2022-08-03T14:10:42;37.50;99.90
9824;DHT22;4951;50.778;7.196;2022-08-03T14:13:10;37.00;99.90
9824;DHT22;4951;50.778;7.196;2022-08-03T14:15:41;36.50;99.90
9824;DHT22;4951;50.778;7.196;2022-08-03T14:18:14;36.70;99.90
9824;DHT22;4951;50.778;7.196;2022-08-03T14:20:41;37.40;99.90
9824;DHT22;4951;50.778;7.196;2022-08-03T14:23:11;37.90;99.90
9824;DHT22;4951;50.778;7.196;2022-08-03T14:25:38;37.80;99.90
9824;DHT22;4951;50.778;7.196;2022-08-03T14:28:06;37.70;99.90
9824;DHT22;4951;50.778;7.196;2022-08-03T14:30:37;37.70;99.90
9824;DHT22;4951;50.778;7.196;2022-08-03T14:33:05;37.80;99.90
9824;DHT22;4951;50.778;7.196;2022-08-03T14:35:36;38.10;99.90
9824;DHT22;4951;50.778;7.196;2022-08-03T14:38:03;38.50;99.90
9824;DHT22;4951;50.778;7.196;2022-08-03T14:40:31;38.80;99.90
9824;DHT22;4951;50.778;7.196;2022-08-03T14:42:58;39.30;99.90
9824;DHT22;4951;50.778;7.196;2022-08-03T14:45:27;39.80;99.90
9824;DHT22;4951;50.778;7.196;2022-08-03T14:47:54;40.40;99.90
9824;DHT22;4951;50.778;7.196;2022-08-03T14:50:26;41.00;99.90
9824;DHT22;4951;50.778;7.196;2022-08-03T14:52:54;41.50;99.90
9824;DHT22;4951;50.778;7.196;2022-08-03T14:55:21;41.60;99.90
9824;DHT22;4951;50.778;7.196;2022-08-03T14:57:49;41.90;99.90
9824;DHT22;4951;50.778;7.196;2022-08-03T15:00:16;42.00;99.90
9824;DHT22;4951;50.778;7.196;2022-08-03T15:02:44;42.10;99.90
9824;DHT22;4951;50.778;7.196;2022-08-03T15:05:11;42.30;99.90
9824;DHT22;4951;50.778;7.196;2022-08-03T15:07:41;42.30;99.90
9824;DHT22;4951;50.778;7.196;2022-08-03T15:10:08;42.50;99.90
9824;DHT22;4951;50.778;7.196;2022-08-03T15:12:35;42.50;99.90
9824;DHT22;4951;50.778;7.196;2022-08-03T15:15:02;42.30;99.90
9824;DHT22;4951;50.778;7.196;2022-08-03T15:17:30;41.90;99.90
9824;DHT22;4951;50.778;7.196;2022-08-03T15:19:57;41.60;99.90
9824;DHT22;4951;50.778;7.196;2022-08-03T15:22:24;41.40;99.90
9824;DHT22;4951;50.778;7.196;2022-08-03T15:24:53;41.20;99.90
9824;DHT22;4951;50.778;7.196;2022-08-03T15:27:20;41.00;99.90
9824;DHT22;4951;50.778;7.196;2022-08-03T15:29:48;41.00;99.90
9824;DHT22;4951;50.778;7.196;2022-08-03T15:32:15;41.00;99.90
9824;DHT22;4951;50.778;7.196;2022-08-03T15:34:42;41.10;99.90
9824;DHT22;4951;50.778;7.196;2022-08-03T15:37:09;41.20;99.90
9824;DHT22;4951;50.778;7.196;2022-08-03T15:39:36;41.40;99.90
9824;DHT22;4951;50.778;7.196;2022-08-03T15:42:05;41.90;99.90
9824;DHT22;4951;50.778;7.196;2022-08-03T15:44:32;42.00;99.90
9824;DHT22;4951;50.778;7.196;2022-08-03T15:46:59;42.10;99.90
9824;DHT22;4951;50.778;7.196;2022-08-03T15:49:26;42.00;99.90
9824;DHT22;4951;50.778;7.196;2022-08-03T15:51:54;41.80;99.90
9824;DHT22;4951;50.778;7.196;2022-08-03T15:54:20;41.70;99.90
9824;DHT22;4951;50.778;7.196;2022-08-03T15:56:48;41.60;99.90
9824;DHT22;4951;50.778;7.196;2022-08-03T15:59:16;41.60;99.90
9824;DHT22;4951;50.778;7.196;2022-08-03T16:01:44;41.70;99.90
9824;DHT22;4951;50.778;7.196;2022-08-03T16:04:11;42.00;99.90
9824;DHT22;4951;50.778;7.196;2022-08-03T16:06:38;42.30;99.90
9824;DHT22;4951;50.778;7.196;2022-08-03T16:09:06;42.40;99.90
9824;DHT22;4951;50.778;7.196;2022-08-03T16:11:34;42.40;99.90
9824;DHT22;4951;50.778;7.196;2022-08-03T16:14:01;42.00;99.90
9824;DHT22;4951;50.778;7.196;2022-08-03T16:16:29;41.80;99.90
9824;DHT22;4951;50.778;7.196;2022-08-03T16:18:57;41.50;99.90
9824;DHT22;4951;50.778;7.196;2022-08-03T16:21:24;41.30;99.90
9824;DHT22;4951;50.778;7.196;2022-08-03T16:23:51;40.90;99.90
9824;DHT22;4951;50.778;7.196;2022-08-03T16:26:18;40.40;99.90
9824;DHT22;4951;50.778;7.196;2022-08-03T16:28:45;39.50;99.90
9824;DHT22;4951;50.778;7.196;2022-08-03T16:31:12;38.50;99.90